createdAt,value
2023-01-10T00:03:27.912Z,6.33
2023-01-10T00:08:19.796Z,6.58
2023-01-10T00:13:24.404Z,5.92
2023-01-10T00:18:16.306Z,5.80
2023-01-10T00:23:07.928Z,6.53
2023-01-10T00:28:20.146Z,6.18
2023-01-10T00:33:17.332Z,6.48
2023-01-10T00:38:09.053Z,6.59
2023-01-10T00:43:19.911Z,6.55
2023-01-10T00:48:13.005Z,6.29
2023-01-10T00:53:04.764Z,6.08
2023-01-10T00:57:56.501Z,6.44
2023-01-10T01:02:50.198Z,6.20
2023-01-10T01:07:41.799Z,6.26
2023-01-10T01:12:33.509Z,6.69
2023-01-10T01:17:25.156Z,6.19
2023-01-10T01:22:16.702Z,6.65
2023-01-10T01:27:08.288Z,6.47
2023-01-10T01:31:59.906Z,6.47
2023-01-10T01:36:51.765Z,6.66
2023-01-10T01:41:58.767Z,6.28
2023-01-10T01:47:05.660Z,5.76
2023-01-10T01:52:01.056Z,6.30
2023-01-10T01:57:01.379Z,6.06
2023-01-10T02:01:56.602Z,6.35
2023-01-10T02:06:52.785Z,5.72
2023-01-10T02:11:44.813Z,6.50
2023-01-10T02:16:36.610Z,5.85
2023-01-10T02:21:59.291Z,6.52
2023-01-10T02:26:59.693Z,6.45
2023-01-10T02:31:57.263Z,6.32
2023-01-10T02:36:55.645Z,6.14
2023-01-10T02:42:08.987Z,5.86
2023-01-10T02:47:03.672Z,5.90
2023-01-10T02:51:56.850Z,6.34
2023-01-10T02:56:57.495Z,6.36
2023-01-10T03:02:04.023Z,6.23
2023-01-10T03:07:28.993Z,5.98
2023-01-10T03:12:47.427Z,6.30
2023-01-10T03:17:40.854Z,5.63
2023-01-10T03:22:38.305Z,5.64
2023-01-10T03:27:30.197Z,5.58
2023-01-10T03:32:25.829Z,5.34
2023-01-10T03:37:30.439Z,5.25
2023-01-10T03:43:05.124Z,5.86
2023-01-10T03:48:01.287Z,4.84
2023-01-10T03:52:53.364Z,5.96
2023-01-10T03:57:45.657Z,5.49
2023-01-10T04:02:37.284Z,5.77
2023-01-10T04:07:28.906Z,5.39
2023-01-10T04:12:20.699Z,5.42
2023-01-10T04:17:13.288Z,5.09
2023-01-10T04:22:05.918Z,5.32
2023-01-10T04:26:57.755Z,5.49
2023-01-10T04:31:50.251Z,4.60
2023-01-10T04:36:42.435Z,4.88
2023-01-10T04:41:34.066Z,5.26
2023-01-10T04:46:25.793Z,4.78
2023-01-10T04:51:17.745Z,5.59
2023-01-10T04:56:14.969Z,4.93
2023-01-10T05:01:15.063Z,5.74
2023-01-10T05:06:07.207Z,5.04
2023-01-10T05:10:58.812Z,5.75
2023-01-10T05:15:54.105Z,5.70
2023-01-10T05:20:45.705Z,5.38
2023-01-10T05:25:37.443Z,5.48
2023-01-10T05:30:29.148Z,5.68
2023-01-10T05:35:20.708Z,5.60
2023-01-10T05:40:12.804Z,5.37
2023-01-10T05:45:05.214Z,5.21
2023-01-10T05:49:56.762Z,5.37
2023-01-10T05:54:48.333Z,5.33
2023-01-10T05:59:40.251Z,5.05
2023-01-10T06:04:32.502Z,4.78
2023-01-10T06:09:24.135Z,4.64
2023-01-10T06:14:19.283Z,4.35
2023-01-10T06:19:11.048Z,4.91
2023-01-10T06:24:02.712Z,5.13
2023-01-10T06:28:54.381Z,4.26
2023-01-10T06:33:45.894Z,3.95
2023-01-10T06:38:37.473Z,4.58
2023-01-10T06:43:29.051Z,5.03
2023-01-10T06:48:21.014Z,4.89
2023-01-10T06:53:12.686Z,4.72
2023-01-10T06:58:04.892Z,4.87
2023-01-10T07:03:01.418Z,4.71
2023-01-10T07:07:53.118Z,3.82
2023-01-10T07:12:44.738Z,4.45
2023-01-10T07:17:36.329Z,4.26
2023-01-10T07:22:27.946Z,3.86
2023-01-10T07:27:19.899Z,4.56
2023-01-10T07:32:11.499Z,4.63
2023-01-10T07:37:03.107Z,4.93
2023-01-10T07:41:55.318Z,5.23
2023-01-10T07:46:46.888Z,5.03
2023-01-10T07:51:38.469Z,5.30
2023-01-10T07:56:31.152Z,4.93
2023-01-10T08:01:24.811Z,4.82
2023-01-10T08:06:16.885Z,4.77
2023-01-10T08:11:08.662Z,5.07
2023-01-10T08:16:03.924Z,4.81
2023-01-10T08:20:55.537Z,5.19
2023-01-10T08:25:47.764Z,4.88
2023-01-10T08:30:40.190Z,6.28
2023-01-10T08:35:36.038Z,6.48
2023-01-10T08:40:27.615Z,6.78
2023-01-10T08:45:19.199Z,7.02
2023-01-10T08:50:11.160Z,7.25
2023-01-10T08:55:02.825Z,6.84
2023-01-10T08:59:54.368Z,6.63
2023-01-10T09:04:46.823Z,6.61
2023-01-10T09:09:38.443Z,7.80
2023-01-10T09:14:29.987Z,7.83
2023-01-10T09:19:21.619Z,8.04
2023-01-10T09:24:13.543Z,8.07
2023-01-10T09:29:05.134Z,8.41
2023-01-10T09:33:56.688Z,8.24
2023-01-10T09:38:48.313Z,8.64
2023-01-10T09:44:02.002Z,8.95
2023-01-10T09:49:01.753Z,8.80
2023-01-10T09:54:10.773Z,8.35
2023-01-10T09:59:04.051Z,8.41
2023-01-10T10:04:02.624Z,8.44
2023-01-10T10:08:54.878Z,7.65
2023-01-10T10:14:14.515Z,8.08
2023-01-10T10:19:08.928Z,8.31
2023-01-10T10:24:16.657Z,8.36
2023-01-10T10:29:40.681Z,8.66
2023-01-10T10:34:41.488Z,8.65
2023-01-10T10:39:43.155Z,8.84
2023-01-10T10:44:47.190Z,8.92
2023-01-10T10:49:59.739Z,8.99
2023-01-10T10:54:52.886Z,8.84
2023-01-10T10:59:48.427Z,8.60
2023-01-10T11:04:40.217Z,9.30
2023-01-10T11:09:40.675Z,8.73
2023-01-10T11:14:51.373Z,9.70
2023-01-10T11:19:55.856Z,9.66
2023-01-10T11:24:56.680Z,9.77
2023-01-10T11:29:51.773Z,9.69
2023-01-10T11:34:53.619Z,9.72
2023-01-10T11:39:45.377Z,9.11
2023-01-10T11:44:36.963Z,9.43
2023-01-10T11:49:38.999Z,9.08
2023-01-10T11:54:32.555Z,9.53
2023-01-10T11:59:26.358Z,9.48
2023-01-10T12:04:21.127Z,9.61
2023-01-10T12:09:32.890Z,9.48
2023-01-10T12:14:27.852Z,9.54
2023-01-10T12:19:19.516Z,9.41
2023-01-10T12:24:26.769Z,9.65
2023-01-10T12:29:24.771Z,8.13
2023-01-10T12:34:22.965Z,8.59
2023-01-10T12:39:30.365Z,9.14
2023-01-10T12:44:28.655Z,8.86
2023-01-10T12:49:29.124Z,8.48
2023-01-10T12:54:28.216Z,9.13
2023-01-10T12:59:36.700Z,8.55
2023-01-10T13:04:34.301Z,9.05
2023-01-10T13:09:29.167Z,8.54
2023-01-10T13:14:25.866Z,8.97
2023-01-10T13:19:27.681Z,9.08
2023-01-10T13:24:26.431Z,9.10
2023-01-10T13:29:21.094Z,8.98
2023-01-10T13:34:14.604Z,8.99
2023-01-10T13:39:19.616Z,8.81
2023-01-10T13:44:15.982Z,8.89
2023-01-10T13:49:10.710Z,8.86
2023-01-10T13:54:26.536Z,7.76
2023-01-10T13:59:47.071Z,8.50
2023-01-10T14:04:57.772Z,8.45
2023-01-10T14:09:51.571Z,8.33
2023-01-10T14:14:51.500Z,7.71
2023-01-10T14:19:46.699Z,7.25
2023-01-10T14:24:52.796Z,7.93
2023-01-10T14:29:58.295Z,7.54
2023-01-10T14:34:50.921Z,7.70
2023-01-10T14:39:45.150Z,7.58
2023-01-10T14:44:54.082Z,7.82
2023-01-10T14:49:51.235Z,7.65
2023-01-10T14:54:43.024Z,7.65
2023-01-10T14:59:36.178Z,7.55
2023-01-10T15:04:31.125Z,7.48
2023-01-10T15:09:22.750Z,7.45
2023-01-10T15:14:17.905Z,7.34
2023-01-10T15:19:20.453Z,7.51
2023-01-10T15:24:35.938Z,7.32
2023-01-10T15:29:28.061Z,7.41
2023-01-10T15:34:23.611Z,7.42
2023-01-10T15:39:25.495Z,7.38
2023-01-10T15:44:35.306Z,7.30
2023-01-10T15:49:27.007Z,7.21
2023-01-10T15:54:18.564Z,7.14
2023-01-10T15:59:32.781Z,7.08
2023-01-10T16:04:24.970Z,6.91
2023-01-10T16:09:22.110Z,6.64
2023-01-10T16:14:13.683Z,5.83
2023-01-10T16:19:05.309Z,6.44
2023-01-10T16:23:56.998Z,6.27
2023-01-10T16:28:48.684Z,6.20
2023-01-10T16:33:41.221Z,5.75
2023-01-10T16:38:34.871Z,6.13
2023-01-10T16:43:29.073Z,5.56
2023-01-10T16:48:21.538Z,6.18
2023-01-10T16:53:15.706Z,5.72
2023-01-10T16:58:08.729Z,6.05
2023-01-10T17:03:03.843Z,6.00
2023-01-10T17:07:55.433Z,5.94
2023-01-10T17:12:47.384Z,5.91
2023-01-10T17:17:39.057Z,5.30
2023-01-10T17:22:30.690Z,5.73
2023-01-10T17:27:22.264Z,5.88
2023-01-10T17:32:13.880Z,5.54
2023-01-10T17:37:05.890Z,5.85
2023-01-10T17:41:57.876Z,5.77
2023-01-10T17:46:49.630Z,5.68
2023-01-10T17:51:41.218Z,5.63
2023-01-10T17:56:32.771Z,5.40
2023-01-10T18:01:25.937Z,5.21
2023-01-10T18:06:23.695Z,5.66
2023-01-10T18:11:16.703Z,5.63
2023-01-10T18:16:08.373Z,5.58
2023-01-10T18:21:05.141Z,5.53
2023-01-10T18:26:04.512Z,5.50
2023-01-10T18:30:56.325Z,5.23
2023-01-10T18:35:48.915Z,5.53
2023-01-10T18:40:42.027Z,5.42
2023-01-10T18:45:33.787Z,5.22
2023-01-10T18:50:26.315Z,4.87
2023-01-10T18:55:18.344Z,5.83
2023-01-10T19:00:10.497Z,5.80
2023-01-10T19:05:03.877Z,5.44
2023-01-10T19:09:55.528Z,5.44
2023-01-10T19:14:47.347Z,6.16
2023-01-10T19:19:39.195Z,5.65
2023-01-10T19:24:35.154Z,6.29
2023-01-10T19:29:27.051Z,6.16
2023-01-10T19:34:19.040Z,6.05
2023-01-10T19:39:11.999Z,6.49
2023-01-10T19:44:07.621Z,6.49
2023-01-10T19:49:03.424Z,6.22
2023-01-10T19:53:55.166Z,6.42
2023-01-10T19:58:47.914Z,6.12
2023-01-10T20:03:42.502Z,6.47
2023-01-10T20:08:34.480Z,6.33
2023-01-10T20:13:26.318Z,6.40
2023-01-10T20:18:18.178Z,6.61
2023-01-10T20:23:12.316Z,6.31
2023-01-10T20:28:04.145Z,6.36
2023-01-10T20:32:55.691Z,6.50
2023-01-10T20:37:48.480Z,6.55
2023-01-10T20:42:40.890Z,6.86
2023-01-10T20:47:33.254Z,6.48
2023-01-10T20:52:24.852Z,6.82
2023-01-10T20:57:16.619Z,6.64
2023-01-10T21:02:10.565Z,6.92
2023-01-10T21:07:02.163Z,6.90
2023-01-10T21:12:04.472Z,6.76
2023-01-10T21:17:02.127Z,6.65
2023-01-10T21:21:53.686Z,6.43
2023-01-10T21:26:45.350Z,6.75
2023-01-10T21:31:37.094Z,6.73
2023-01-10T21:36:28.852Z,6.97
2023-01-10T21:41:53.358Z,7.15
2023-01-10T21:46:46.716Z,6.76
2023-01-10T21:51:38.342Z,7.01
2023-01-10T21:56:29.950Z,6.89
2023-01-10T22:01:21.772Z,7.19
2023-01-10T22:06:13.606Z,6.78
2023-01-10T22:11:05.382Z,7.22
2023-01-10T22:16:01.041Z,7.00
2023-01-10T22:20:56.586Z,6.78
2023-01-10T22:26:09.716Z,7.26
2023-01-10T22:31:02.073Z,6.83
2023-01-10T22:35:53.624Z,6.81
2023-01-10T22:40:45.222Z,7.16
2023-01-10T22:45:40.631Z,7.03
2023-01-10T22:50:32.402Z,7.33
2023-01-10T22:55:24.131Z,7.35
2023-01-10T23:00:16.688Z,7.40
2023-01-10T23:05:08.463Z,7.12
2023-01-10T23:10:00.022Z,7.19
2023-01-10T23:14:51.641Z,7.38
2023-01-10T23:19:44.552Z,7.23
2023-01-10T23:24:36.354Z,7.10
2023-01-10T23:29:27.925Z,7.40
2023-01-10T23:34:19.734Z,7.45
2023-01-10T23:39:11.335Z,7.44
2023-01-10T23:44:02.940Z,7.62
2023-01-10T23:48:54.527Z,7.03
2023-01-10T23:53:46.126Z,7.50
2023-01-10T23:58:38.282Z,7.69
